Time;durP1;ratioP1;P1;durP2;ratioP2;P2;SDS_P1;SDS_P2;PMS_P1;PMS_P2;Temp;Humidity;BMP_temperature;BMP_pressure;BME280_temperature;BME280_humidity;BME280_pressure;Samples;Min_cycle;Max_cycle;Signal;HPM_P1;HPM_P2
2023/01/18 00:00:14;;;;;;;0.30;0.30;;;0.00;99.90;;;;;;5006751;28;20025;-76
2023/01/18 00:02:39;;;;;;;0.50;0.50;;;0.00;99.90;;;;;;5025033;28;20116;-76
2023/01/18 00:05:05;;;;;;;0.30;0.30;;;0.00;99.90;;;;;;5018489;28;20064;-76
2023/01/18 00:07:31;;;;;;;0.40;0.40;;;0.00;99.90;;;;;;5001290;28;20442;-77
2023/01/18 00:09:56;;;;;;;1.70;1.60;;;0.00;99.90;;;;;;5028054;28;20104;-77
2023/01/18 00:12:22;;;;;;;0.40;0.40;;;0.00;99.90;;;;;;5028709;28;20163;-76
2023/01/18 00:14:47;;;;;;;0.30;0.30;;;0.10;99.90;;;;;;5021943;28;20076;-77
2023/01/18 00:17:13;;;;;;;0.50;0.50;;;0.00;99.90;;;;;;5021682;28;20502;-77
2023/01/18 00:19:38;;;;;;;0.50;0.50;;;0.10;99.90;;;;;;5010599;28;20045;-78
2023/01/18 00:22:04;;;;;;;0.30;0.30;;;0.20;99.90;;;;;;5028355;28;20116;-77
2023/01/18 00:24:29;;;;;;;2.05;1.95;;;0.20;99.90;;;;;;5021466;28;20030;-77
2023/01/18 00:26:55;;;;;;;1.05;0.95;;;0.10;99.90;;;;;;5021714;28;20026;-77
2023/01/18 00:29:21;;;;;;;0.40;0.40;;;0.10;99.90;;;;;;5010628;28;20468;-77
2023/01/18 00:31:47;;;;;;;0.32;0.32;;;0.20;99.90;;;;;;5010407;28;20033;-77
2023/01/18 00:34:13;;;;;;;0.57;0.57;;;0.20;99.90;;;;;;5034734;28;20026;-76
2023/01/18 00:36:39;;;;;;;0.40;0.40;;;0.10;99.90;;;;;;5021787;28;20084;-76
2023/01/18 00:39:05;;;;;;;0.40;0.40;;;0.10;99.90;;;;;;5027751;28;20045;-76
2023/01/18 00:41:30;;;;;;;0.65;0.65;;;0.10;99.90;;;;;;5027937;28;20480;-76
2023/01/18 00:43:56;;;;;;;0.35;0.35;;;0.10;99.90;;;;;;5003557;28;20033;-76
2023/01/18 00:46:24;;;;;;;0.30;0.30;;;0.10;99.90;;;;;;5003839;28;20472;-76
2023/01/18 00:48:51;;;;;;;0.57;0.57;;;0.10;99.90;;;;;;5003461;28;20414;-76
2023/01/18 00:51:20;;;;;;;0.45;0.45;;;0.10;99.90;;;;;;5003521;28;20033;-76
2023/01/18 00:53:46;;;;;;;0.40;0.40;;;0.10;99.90;;;;;;5009491;28;20022;-77
2023/01/18 00:56:16;;;;;;;0.40;0.40;;;0.20;99.90;;;;;;5027698;28;20025;-77
2023/01/18 00:58:42;;;;;;;0.40;0.40;;;0.20;99.90;;;;;;5022106;28;20111;-77
2023/01/18 01:01:08;;;;;;;0.40;0.40;;;0.20;99.90;;;;;;5003297;28;20184;-76
2023/01/18 01:06:44;;;;;;;0.57;0.57;;;0.20;99.90;;;;;;5028160;28;20403;-77
2023/01/18 01:09:19;;;;;;;0.50;0.50;;;0.20;99.90;;;;;;5027553;28;20026;-76
2023/01/18 01:28:12;;;;;;;0.40;0.40;;;0.20;99.90;;;;;;5033978;28;20510;-76
2023/01/18 01:30:38;;;;;;;2.35;2.15;;;0.10;99.90;;;;;;5020681;28;20029;-75
2023/01/18 01:33:03;;;;;;;0.60;0.60;;;0.20;99.90;;;;;;5023156;28;20116;-76
2023/01/18 01:35:29;;;;;;;0.57;0.57;;;0.10;99.90;;;;;;5009422;28;20022;-76
2023/01/18 01:37:55;;;;;;;0.40;0.40;;;-0.10;99.90;;;;;;5023964;28;20032;-76
2023/01/18 01:40:20;;;;;;;0.50;0.50;;;-0.10;99.90;;;;;;5002587;28;20030;-75
2023/01/18 01:42:46;;;;;;;0.40;0.40;;;-0.20;99.90;;;;;;5005755;28;20028;-76
2023/01/18 01:45:11;;;;;;;0.40;0.40;;;-0.10;99.90;;;;;;5012719;28;20120;-75
2023/01/18 01:47:41;;;;;;;1.38;1.30;;;-0.20;99.90;;;;;;5015292;28;20132;-75
2023/01/18 01:50:24;;;;;;;0.40;0.40;;;-0.20;99.90;;;;;;5016040;28;20021;-75
2023/01/18 01:52:50;;;;;;;0.45;0.45;;;-0.10;99.90;;;;;;5026664;28;20029;-75
2023/01/18 01:55:28;;;;;;;0.50;0.50;;;-0.10;99.90;;;;;;5020146;28;20095;-77
2023/01/18 01:57:56;;;;;;;2.45;2.35;;;-0.10;99.90;;;;;;5019668;28;20125;-77
2023/01/18 02:00:23;;;;;;;0.40;0.40;;;-0.10;99.90;;;;;;5024730;28;20574;-77
2023/01/18 02:03:00;;;;;;;0.35;0.35;;;-0.10;99.90;;;;;;5008742;28;20037;-76
2023/01/18 02:05:28;;;;;;;0.40;0.40;;;0.00;99.90;;;;;;5013524;28;20466;-77
2023/01/18 02:07:57;;;;;;;0.40;0.40;;;-0.10;99.90;;;;;;5010225;28;20096;-77
2023/01/18 02:10:23;;;;;;;0.50;0.50;;;0.00;99.90;;;;;;5008442;28;20028;-79
2023/01/18 02:12:52;;;;;;;0.40;0.40;;;0.00;99.90;;;;;;5003889;28;20025;-76
2023/01/18 02:15:22;;;;;;;0.40;0.40;;;-0.10;99.90;;;;;;5029667;28;20395;-77
2023/01/18 02:18:16;;;;;;;0.40;0.40;;;-0.10;99.90;;;;;;4998260;28;20026;-77
2023/01/18 02:21:10;;;;;;;0.40;0.40;;;-0.10;99.90;;;;;;4998977;28;20026;-77
2023/01/18 02:23:57;;;;;;;0.82;0.80;;;-0.10;99.90;;;;;;5015446;28;20113;-77
2023/01/18 02:26:32;;;;;;;0.50;0.50;;;-0.10;99.90;;;;;;5022332;28;20033;-77
2023/01/18 02:29:14;;;;;;;0.60;0.60;;;-0.10;99.90;;;;;;5031112;28;20026;-78
2023/01/18 02:32:07;;;;;;;0.47;0.47;;;-0.10;99.90;;;;;;5009474;28;20457;-77
2023/01/18 02:34:43;;;;;;;0.50;0.50;;;-0.10;99.90;;;;;;5016686;28;20039;-77
2023/01/18 02:37:27;;;;;;;0.50;0.50;;;0.00;99.90;;;;;;5016966;28;20021;-77
2023/01/18 02:40:29;;;;;;;0.40;0.40;;;0.00;99.90;;;;;;5004111;28;20049;-77
2023/01/18 02:48:42;;;;;;;0.45;0.45;;;-0.10;99.90;;;;;;5029277;28;20395;-77
2023/01/18 02:51:08;;;;;;;0.50;0.50;;;-0.10;99.90;;;;;;5026317;28;20022;-77
2023/01/18 02:53:38;;;;;;;0.52;0.52;;;-0.10;99.90;;;;;;5005511;28;20018;-78
2023/01/18 02:56:07;;;;;;;0.60;0.60;;;-0.10;99.90;;;;;;5022752;28;20499;-77
2023/01/18 02:58:54;;;;;;;0.47;0.47;;;-0.10;99.90;;;;;;5001432;28;20076;-77
2023/01/18 03:01:29;;;;;;;0.40;0.40;;;-0.10;99.90;;;;;;5019295;28;20029;-77
2023/01/18 03:04:02;;;;;;;0.70;0.70;;;-0.10;99.90;;;;;;5021592;28;20045;-77
2023/01/18 03:06:29;;;;;;;0.75;0.75;;;-0.10;99.90;;;;;;5025577;28;20296;-76
2023/01/18 03:08:57;;;;;;;0.50;0.50;;;-0.10;99.90;;;;;;5024111;28;20017;-77
2023/01/18 03:11:36;;;;;;;0.60;0.60;;;0.00;99.90;;;;;;5022654;28;20410;-78
2023/01/18 03:14:07;;;;;;;0.50;0.50;;;-0.10;99.90;;;;;;5037067;28;20510;-78
2023/01/18 03:16:57;;;;;;;0.40;0.40;;;0.00;99.90;;;;;;5025390;28;20025;-78
2023/01/18 03:20:07;;;;;;;0.50;0.50;;;0.00;99.90;;;;;;4995420;28;20030;-78
2023/01/18 03:25:48;;;;;;;;;;;0.20;99.90;;;;;;5023831;28;20569;-78
2023/01/18 03:34:27;;;;;;;0.60;0.60;;;-0.10;99.90;;;;;;5026613;28;20055;-78
2023/01/18 03:36:56;;;;;;;0.57;0.57;;;-0.20;99.90;;;;;;5015162;28;20457;-78
2023/01/18 03:39:27;;;;;;;0.90;0.90;;;-0.20;99.90;;;;;;5026628;28;20476;-78
2023/01/18 03:42:07;;;;;;;0.50;0.50;;;-0.20;99.90;;;;;;5009912;28;20120;-77
2023/01/18 03:44:43;;;;;;;0.50;0.50;;;-0.30;99.90;;;;;;5024945;28;20026;-76
2023/01/18 03:47:09;;;;;;;0.47;0.47;;;-0.30;99.90;;;;;;5014640;28;20117;-77
2023/01/18 03:49:35;;;;;;;0.80;0.80;;;-0.30;99.90;;;;;;5029937;28;20076;-77
2023/01/18 03:52:45;;;;;;;0.68;0.68;;;-0.30;99.90;;;;;;5022725;28;20021;-77
2023/01/18 03:55:19;;;;;;;0.60;0.60;;;-0.30;99.90;;;;;;4986087;28;20440;-78
2023/01/18 03:57:49;;;;;;;0.65;0.65;;;-0.30;99.90;;;;;;5039398;28;20565;-79
2023/01/18 04:00:16;;;;;;;0.95;0.95;;;-0.30;99.90;;;;;;5027143;28;20033;-76
2023/01/18 04:02:46;;;;;;;0.65;0.65;;;-0.30;99.90;;;;;;5007713;28;20026;-78
2023/01/18 04:05:12;;;;;;;1.52;1.42;;;-0.30;99.90;;;;;;5017215;28;20033;-78
2023/01/18 04:07:38;;;;;;;0.60;0.60;;;-0.30;99.90;;;;;;5010398;28;20018;-78
2023/01/18 04:10:04;;;;;;;0.70;0.70;;;-0.20;99.90;;;;;;5016131;28;20069;-76
2023/01/18 04:12:30;;;;;;;0.75;0.75;;;-0.20;99.90;;;;;;5028765;28;20022;-76
2023/01/18 04:14:56;;;;;;;0.70;0.70;;;-0.30;99.90;;;;;;5004674;28;20025;-76
2023/01/18 04:17:22;;;;;;;0.90;0.90;;;-0.30;99.90;;;;;;5003834;28;20076;-76
2023/01/18 04:19:47;;;;;;;0.77;0.77;;;-0.40;99.90;;;;;;5028036;28;20507;-76
2023/01/18 04:22:13;;;;;;;0.95;0.95;;;-0.30;99.90;;;;;;5010876;28;20507;-76
2023/01/18 04:24:39;;;;;;;2.00;1.90;;;-0.40;99.90;;;;;;5003957;28;20033;-77
2023/01/18 04:27:04;;;;;;;1.38;1.27;;;-0.30;99.90;;;;;;5004402;28;20028;-78
2023/01/18 04:29:30;;;;;;;0.77;0.77;;;-0.30;99.90;;;;;;5022749;28;20378;-76
2023/01/18 04:31:55;;;;;;;0.70;0.70;;;-0.40;99.90;;;;;;5021567;28;20076;-77
2023/01/18 04:34:21;;;;;;;1.20;1.20;;;-0.40;99.90;;;;;;5009488;28;20605;-77
2023/01/18 04:36:47;;;;;;;0.70;0.70;;;-0.30;99.90;;;;;;5028082;28;20030;-77
2023/01/18 04:39:13;;;;;;;0.80;0.80;;;-0.40;99.90;;;;;;5005617;28;20045;-77
2023/01/18 04:41:39;;;;;;;0.73;0.73;;;-0.50;99.90;;;;;;5021929;28;20472;-77
2023/01/18 04:44:05;;;;;;;0.70;0.70;;;-0.50;99.90;;;;;;5009935;28;20026;-77
2023/01/18 04:46:30;;;;;;;0.80;0.80;;;-0.50;99.90;;;;;;5010308;28;20109;-77
2023/01/18 04:48:56;;;;;;;0.65;0.65;;;-0.50;99.90;;;;;;5021241;28;20418;-78
2023/01/18 04:51:26;;;;;;;1.00;1.00;;;-0.50;99.90;;;;;;5022092;28;20026;-77
2023/01/18 04:53:52;;;;;;;0.77;0.77;;;-0.60;99.90;;;;;;5027200;28;20022;-77
2023/01/18 04:56:18;;;;;;;1.73;1.63;;;-0.60;99.90;;;;;;5028292;28;20037;-78
2023/01/18 04:58:44;;;;;;;2.10;2.00;;;-0.60;99.90;;;;;;5022184;28;20029;-76
2023/01/18 05:01:13;;;;;;;0.98;0.98;;;-0.60;99.90;;;;;;5015633;28;20025;-76
2023/01/18 05:03:41;;;;;;;0.98;0.98;;;-0.50;99.90;;;;;;5022602;28;20030;-77
2023/01/18 05:06:09;;;;;;;1.40;1.30;;;-0.50;99.90;;;;;;5020935;28;20037;-77
2023/01/18 05:08:34;;;;;;;0.90;0.90;;;-0.50;99.90;;;;;;5007358;28;20022;-77
2023/01/18 05:11:05;;;;;;;1.60;1.60;;;-0.50;99.90;;;;;;5027441;28;20025;-76
2023/01/18 05:13:31;;;;;;;1.02;1.02;;;-0.60;99.90;;;;;;5023593;28;20112;-77
2023/01/18 05:15:58;;;;;;;0.90;0.90;;;-0.60;99.90;;;;;;5003088;28;20029;-77
2023/01/18 05:18:24;;;;;;;1.17;1.17;;;-0.60;99.90;;;;;;5023892;28;20113;-77
2023/01/18 05:20:50;;;;;;;1.95;1.92;;;-0.60;99.90;;;;;;5030712;28;20392;-76
2023/01/18 05:23:15;;;;;;;0.80;0.80;;;-0.50;99.90;;;;;;5006595;28;20025;-76
2023/01/18 05:25:41;;;;;;;0.90;0.90;;;-0.50;99.90;;;;;;5027724;28;20037;-76
2023/01/18 05:28:08;;;;;;;1.10;1.10;;;-0.50;99.90;;;;;;5005662;28;20106;-76
2023/01/18 05:30:38;;;;;;;1.10;1.10;;;-0.50;99.90;;;;;;5020435;28;20448;-75
2023/01/18 05:33:03;;;;;;;0.90;0.90;;;-0.50;99.90;;;;;;5015742;28;20022;-75
2023/01/18 05:35:30;;;;;;;0.80;0.80;;;-0.50;99.90;;;;;;5033368;28;20087;-75
2023/01/18 05:37:55;;;;;;;0.95;0.95;;;-0.50;99.90;;;;;;5033222;28;20040;-76
2023/01/18 05:40:21;;;;;;;0.90;0.90;;;-0.50;99.90;;;;;;5029955;28;20034;-76
2023/01/18 05:42:47;;;;;;;0.80;0.80;;;-0.60;99.90;;;;;;5023730;28;20068;-75
2023/01/18 05:45:12;;;;;;;1.10;1.10;;;-0.50;99.90;;;;;;5015482;28;20025;-76
2023/01/18 05:47:39;;;;;;;1.00;1.00;;;-0.50;99.90;;;;;;5023102;28;20033;-76
2023/01/18 05:50:05;;;;;;;1.15;1.15;;;-0.50;99.90;;;;;;5013692;28;20018;-76
2023/01/18 05:52:32;;;;;;;0.90;0.90;;;-0.50;99.90;;;;;;5013490;28;20026;-76
2023/01/18 05:54:58;;;;;;;1.00;1.00;;;-0.60;99.90;;;;;;5013353;28;20030;-75
2023/01/18 05:57:23;;;;;;;1.10;1.10;;;-0.60;99.90;;;;;;5012913;28;20049;-76
2023/01/18 05:59:49;;;;;;;1.70;1.60;;;-0.60;99.90;;;;;;4999329;28;20021;-77
2023/01/18 06:02:14;;;;;;;1.10;1.10;;;-0.60;99.90;;;;;;5005249;28;20026;-76
2023/01/18 06:04:40;;;;;;;0.98;0.98;;;-0.60;99.90;;;;;;5029395;28;20064;-74
2023/01/18 06:07:05;;;;;;;1.40;1.40;;;-0.60;99.90;;;;;;5004714;28;20103;-75
2023/01/18 06:09:31;;;;;;;2.35;1.88;;;-0.60;99.90;;;;;;5026540;28;20409;-75
2023/01/18 06:11:56;;;;;;;0.93;0.93;;;-0.60;99.90;;;;;;5005247;28;20055;-75
2023/01/18 06:14:22;;;;;;;1.10;1.10;;;-0.60;99.90;;;;;;5002765;28;20116;-76
2023/01/18 06:16:48;;;;;;;1.17;1.17;;;-0.60;99.90;;;;;;5005069;28;20026;-76
2023/01/18 06:19:13;;;;;;;1.13;1.13;;;-0.60;99.90;;;;;;5026230;28;20149;-75
2023/01/18 06:21:39;;;;;;;1.10;1.10;;;-0.60;99.90;;;;;;5001843;28;20066;-75
2023/01/18 06:24:04;;;;;;;1.90;1.83;;;-0.60;99.90;;;;;;5008752;28;20045;-76
2023/01/18 06:26:30;;;;;;;1.20;1.20;;;-0.50;99.90;;;;;;4995374;28;20025;-75
2023/01/18 06:28:56;;;;;;;1.00;1.00;;;-0.60;99.90;;;;;;5015360;28;20032;-76
2023/01/18 06:31:22;;;;;;;1.08;1.08;;;-0.50;99.90;;;;;;5005360;28;20067;-75
2023/01/18 06:33:48;;;;;;;1.20;1.20;;;-0.60;99.90;;;;;;5025897;28;20475;-76
2023/01/18 06:36:14;;;;;;;1.08;1.08;;;-0.60;99.90;;;;;;5004819;28;20064;-76
2023/01/18 06:38:40;;;;;;;1.20;1.20;;;-0.60;99.90;;;;;;5001222;28;20029;-76
2023/01/18 06:41:06;;;;;;;1.50;1.50;;;-0.70;99.90;;;;;;5004905;28;20030;-75
2023/01/18 06:43:32;;;;;;;1.35;1.35;;;-0.70;99.90;;;;;;5025764;28;20050;-75
2023/01/18 06:45:58;;;;;;;1.80;1.80;;;-0.60;99.90;;;;;;5022295;28;20068;-75
2023/01/18 06:48:25;;;;;;;1.73;1.73;;;-0.70;99.90;;;;;;5018816;28;20390;-76
2023/01/18 06:50:51;;;;;;;1.33;1.33;;;-0.60;99.90;;;;;;5022284;28;20022;-76
2023/01/18 06:53:19;;;;;;;2.67;2.58;;;-0.60;99.90;;;;;;5025559;28;20058;-75
2023/01/18 06:55:58;;;;;;;1.25;1.25;;;-0.60;99.90;;;;;;5022736;28;20101;-72
2023/01/18 06:58:25;;;;;;;2.60;2.50;;;-0.60;99.90;;;;;;5018318;28;20041;-75
2023/01/18 07:00:59;;;;;;;1.38;1.38;;;-0.60;99.90;;;;;;5014808;28;20686;-77
2023/01/18 07:03:26;;;;;;;1.10;1.10;;;-0.60;99.90;;;;;;5018799;28;20025;-76
2023/01/18 07:05:53;;;;;;;1.50;1.50;;;-0.50;99.90;;;;;;5018699;28;20048;-76
2023/01/18 07:08:19;;;;;;;1.25;1.25;;;-0.60;99.90;;;;;;5018336;28;20017;-76
2023/01/18 07:10:49;;;;;;;1.45;1.40;;;-0.50;99.90;;;;;;5018965;28;20014;-77
2023/01/18 07:13:14;;;;;;;1.67;1.67;;;-0.50;99.90;;;;;;5012166;28;20104;-76
2023/01/18 07:15:40;;;;;;;1.40;1.40;;;-0.50;99.90;;;;;;5025242;28;20464;-75
2023/01/18 07:18:06;;;;;;;1.35;1.35;;;-0.50;99.90;;;;;;5018633;28;20034;-77
2023/01/18 07:20:31;;;;;;;1.58;1.58;;;-0.50;99.90;;;;;;5001311;28;20026;-77
2023/01/18 07:22:57;;;;;;;1.40;1.40;;;-0.50;99.90;;;;;;5027781;28;20029;-77
2023/01/18 07:25:23;;;;;;;1.42;1.40;;;-0.40;99.90;;;;;;5001102;28;20117;-76
2023/01/18 07:27:49;;;;;;;1.20;1.20;;;-0.40;99.90;;;;;;5031583;28;20467;-76
2023/01/18 07:30:15;;;;;;;2.85;2.67;;;-0.20;99.90;;;;;;5018276;28;20034;-76
2023/01/18 07:32:49;;;;;;;1.52;1.52;;;-0.30;99.90;;;;;;4998349;28;20022;-77
2023/01/18 07:35:21;;;;;;;1.20;1.20;;;-0.20;99.90;;;;;;5005875;28;20029;-77
2023/01/18 07:37:48;;;;;;;1.50;1.50;;;-0.20;99.90;;;;;;4994047;28;20026;-75
2023/01/18 07:40:14;;;;;;;1.20;1.20;;;-0.20;99.90;;;;;;5006602;28;20396;-77
2023/01/18 07:42:40;;;;;;;1.45;1.45;;;-0.10;99.90;;;;;;5020941;28;20025;-76
2023/01/18 07:45:07;;;;;;;1.40;1.40;;;-0.10;99.90;;;;;;5000431;28;20388;-75
2023/01/18 07:47:34;;;;;;;2.08;1.98;;;-0.10;99.90;;;;;;5004751;28;20045;-76
2023/01/18 07:50:00;;;;;;;3.38;3.08;;;0.00;99.90;;;;;;5025072;28;20025;-77
2023/01/18 07:52:25;;;;;;;2.45;2.35;;;0.00;99.90;;;;;;5020727;28;20025;-76
2023/01/18 07:54:51;;;;;;;1.40;1.40;;;0.10;99.90;;;;;;5000463;28;20022;-76
2023/01/18 07:57:16;;;;;;;2.83;1.77;;;0.00;99.90;;;;;;5021924;28;20322;-76
2023/01/18 07:59:42;;;;;;;2.47;2.38;;;-0.10;99.90;;;;;;5024716;28;20476;-76
2023/01/18 08:02:11;;;;;;;2.30;2.15;;;-0.20;99.90;;;;;;5020913;28;20459;-77
2023/01/18 08:04:38;;;;;;;1.85;1.85;;;-0.20;99.90;;;;;;5000281;28;20033;-76
2023/01/18 08:07:04;;;;;;;1.85;1.85;;;-0.20;99.90;;;;;;5021247;28;20472;-76
2023/01/18 08:09:29;;;;;;;2.00;2.00;;;-0.20;99.90;;;;;;5006787;28;20117;-76
2023/01/18 08:11:55;;;;;;;2.60;2.50;;;-0.20;99.90;;;;;;5003283;28;20029;-76
2023/01/18 08:14:21;;;;;;;1.80;1.80;;;-0.20;99.90;;;;;;4997537;28;20116;-76
2023/01/18 08:16:46;;;;;;;1.98;1.88;;;-0.20;99.90;;;;;;5020191;28;20022;-77
2023/01/18 08:19:12;;;;;;;3.33;3.13;;;-0.10;99.90;;;;;;5016083;28;20018;-76
2023/01/18 08:21:38;;;;;;;2.08;1.92;;;-0.10;99.90;;;;;;5009295;28;20029;-76
2023/01/18 08:24:04;;;;;;;1.80;1.75;;;-0.10;99.90;;;;;;5001112;28;20028;-75
2023/01/18 08:26:30;;;;;;;1.80;1.80;;;0.00;99.90;;;;;;5019296;28;20502;-75
2023/01/18 08:28:56;;;;;;;1.60;1.60;;;-0.10;99.90;;;;;;5029168;28;20034;-74
2023/01/18 08:31:22;;;;;;;2.38;2.28;;;0.00;99.90;;;;;;4997370;28;20368;-75
2023/01/18 08:33:48;;;;;;;1.80;1.80;;;0.10;99.90;;;;;;5015029;28;20030;-76
2023/01/18 08:36:20;;;;;;;4.00;1.80;;;0.00;99.90;;;;;;5017523;28;20022;-76
2023/01/18 08:38:52;;;;;;;2.90;2.53;;;0.00;99.90;;;;;;5033123;28;20021;-76
2023/01/18 08:41:18;;;;;;;1.98;1.98;;;0.00;99.90;;;;;;5026090;28;20430;-76
2023/01/18 08:43:47;;;;;;;2.95;2.72;;;0.00;99.90;;;;;;5027602;28;20507;-76
2023/01/18 08:46:14;;;;;;;2.42;2.33;;;0.00;99.90;;;;;;5019722;28;20030;-75
2023/01/18 08:48:40;;;;;;;2.08;1.98;;;0.00;99.90;;;;;;5026959;28;20494;-75
2023/01/18 08:51:06;;;;;;;2.08;2.05;;;0.00;99.90;;;;;;5026951;28;20029;-75
2023/01/18 08:53:31;;;;;;;1.70;1.70;;;0.00;99.90;;;;;;5034300;28;20033;-76
2023/01/18 08:55:57;;;;;;;1.63;1.63;;;0.10;99.90;;;;;;5034214;28;20041;-76
2023/01/18 08:58:22;;;;;;;4.13;3.78;;;0.00;99.90;;;;;;5023939;28;20087;-76
2023/01/18 09:00:49;;;;;;;1.80;1.80;;;-0.10;99.90;;;;;;5016315;28;20025;-76
2023/01/18 09:03:19;;;;;;;2.28;2.17;;;-0.10;99.90;;;;;;5016352;28;20033;-75
2023/01/18 09:05:44;;;;;;;4.78;3.05;;;-0.20;99.90;;;;;;5034047;28;20096;-75
2023/01/18 09:08:10;;;;;;;2.60;2.42;;;0.00;99.90;;;;;;5002422;28;20116;-75
2023/01/18 09:10:37;;;;;;;3.80;2.78;;;0.00;99.90;;;;;;5021425;28;20536;-75
2023/01/18 09:13:03;;;;;;;1.52;1.52;;;-0.10;99.90;;;;;;5037953;28;20388;-76
2023/01/18 09:15:28;;;;;;;1.73;1.73;;;0.00;99.90;;;;;;5004164;28;20059;-76
2023/01/18 09:17:54;;;;;;;2.28;2.17;;;0.10;99.90;;;;;;5008429;28;20037;-77
2023/01/18 09:20:19;;;;;;;2.00;2.00;;;-0.10;99.90;;;;;;5013801;28;20119;-76
2023/01/18 09:22:46;;;;;;;2.30;2.20;;;0.00;99.90;;;;;;5026656;28;20562;-76
2023/01/18 09:25:12;;;;;;;2.50;2.40;;;0.00;99.90;;;;;;5026626;28;20387;-77
2023/01/18 09:27:38;;;;;;;1.92;1.83;;;0.00;99.90;;;;;;5002745;28;20026;-76
2023/01/18 09:30:05;;;;;;;2.30;2.20;;;0.00;99.90;;;;;;5024774;28;20030;-76
2023/01/18 09:32:31;;;;;;;1.70;1.70;;;0.00;99.90;;;;;;5029949;28;20030;-76
2023/01/18 09:34:56;;;;;;;6.95;6.15;;;0.10;99.90;;;;;;5026265;28;20044;-76
2023/01/18 09:37:22;;;;;;;3.13;2.92;;;0.00;99.90;;;;;;5023580;28;20079;-75
2023/01/18 09:39:48;;;;;;;2.30;2.20;;;0.00;99.90;;;;;;5032588;28;20041;-76
2023/01/18 09:42:28;;;;;;;5.25;4.82;;;0.00;99.90;;;;;;5028054;28;20549;-76
2023/01/18 09:44:57;;;;;;;1.88;1.88;;;0.00;99.90;;;;;;5027364;28;20112;-75
2023/01/18 09:47:27;;;;;;;1.90;1.90;;;0.00;99.90;;;;;;5025137;28;20388;-75
2023/01/18 09:49:58;;;;;;;1.85;1.83;;;0.30;99.90;;;;;;5009232;28;20553;-76
2023/01/18 09:52:50;;;;;;;2.00;2.00;;;0.20;99.90;;;;;;5004549;28;20502;-76
2023/01/18 09:55:23;;;;;;;4.07;3.85;;;0.10;99.90;;;;;;5002329;28;20022;-76
2023/01/18 09:58:01;;;;;;;12.75;2.95;;;0.10;99.90;;;;;;5001510;28;20044;-76
2023/01/18 10:00:29;;;;;;;2.90;2.80;;;0.10;99.90;;;;;;5013413;28;20057;-76
2023/01/18 10:03:03;;;;;;;3.53;3.33;;;0.00;99.90;;;;;;5028462;28;20382;-75
2023/01/18 10:05:33;;;;;;;2.15;2.13;;;0.10;99.90;;;;;;5023100;28;20057;-75
2023/01/18 10:08:04;;;;;;;2.92;2.63;;;0.10;99.90;;;;;;5016120;28;20560;-75
2023/01/18 10:10:37;;;;;;;5.22;4.65;;;0.30;99.90;;;;;;5032935;28;20025;-75
2023/01/18 10:13:38;;;;;;;2.70;2.60;;;0.20;99.90;;;;;;5038101;28;20036;-75
2023/01/18 10:16:13;;;;;;;2.33;2.22;;;0.30;99.90;;;;;;5015450;28;20148;-75
2023/01/18 10:18:45;;;;;;;1.73;1.73;;;0.30;99.90;;;;;;5021476;28;20124;-76
2023/01/18 10:21:35;;;;;;;4.05;3.72;;;0.50;99.90;;;;;;5026375;28;20100;-75
2023/01/18 10:24:23;;;;;;;2.15;2.05;;;0.40;99.90;;;;;;5027612;28;20471;-76
2023/01/18 10:26:52;;;;;;;1.80;1.80;;;0.60;99.90;;;;;;5023531;28;20033;-76
2023/01/18 10:29:40;;;;;;;6.65;5.45;;;0.60;99.90;;;;;;5028085;28;20025;-75
2023/01/18 10:32:18;;;;;;;2.97;2.88;;;0.50;99.90;;;;;;5001880;28;20565;-76
2023/01/18 10:34:48;;;;;;;4.70;3.58;;;0.60;99.90;;;;;;5004544;28;20472;-75
2023/01/18 10:37:34;;;;;;;1.63;1.63;;;0.50;99.90;;;;;;5012181;28;20041;-75
2023/01/18 10:40:04;;;;;;;2.15;2.10;;;0.70;99.90;;;;;;5001482;28;20034;-76
2023/01/18 10:42:45;;;;;;;5.20;2.55;;;0.60;99.90;;;;;;5014823;28;20033;-75
2023/01/18 10:45:19;;;;;;;3.13;2.92;;;0.60;99.90;;;;;;5001699;28;20483;-76
2023/01/18 10:47:46;;;;;;;3.15;2.75;;;0.50;99.90;;;;;;5032018;28;20029;-75
2023/01/18 10:50:35;;;;;;;2.15;2.15;;;0.60;99.90;;;;;;5012362;28;20029;-75
2023/01/18 10:53:20;;;;;;;3.78;3.53;;;0.50;99.90;;;;;;5018159;28;20017;-75
2023/01/18 10:56:07;;;;;;;2.65;2.55;;;0.50;99.90;;;;;;5032016;28;20076;-75
2023/01/18 10:58:51;;;;;;;3.42;3.33;;;0.50;99.90;;;;;;5010423;28;20046;-76
2023/01/18 11:01:24;;;;;;;2.17;2.10;;;0.30;99.90;;;;;;5023450;28;20025;-76
2023/01/18 11:04:05;;;;;;;2.63;2.53;;;0.50;99.90;;;;;;5019897;28;20040;-76
2023/01/18 11:06:46;;;;;;;2.35;2.25;;;0.60;99.90;;;;;;5012399;28;20034;-76
2023/01/18 11:09:33;;;;;;;1.60;1.60;;;0.80;99.90;;;;;;5028999;28;20021;-75
2023/01/18 11:12:37;;;;;;;3.45;3.17;;;1.00;99.90;;;;;;5020095;28;20018;-75
2023/01/18 11:15:15;;;;;;;2.55;2.45;;;1.10;99.90;;;;;;5001255;28;20487;-75
2023/01/18 11:17:56;;;;;;;1.50;1.50;;;1.30;99.90;;;;;;5009905;28;20406;-75
2023/01/18 11:20:49;;;;;;;3.00;2.90;;;1.30;99.90;;;;;;5006217;28;20029;-75
2023/01/18 11:23:16;;;;;;;2.50;2.40;;;1.30;99.90;;;;;;5021030;28;20094;-76
2023/01/18 11:26:12;;;;;;;2.15;2.05;;;1.30;99.90;;;;;;4997794;28;20034;-75
2023/01/18 11:28:48;;;;;;;1.95;1.85;;;1.10;99.90;;;;;;4993363;28;20076;-75
2023/01/18 11:31:20;;;;;;;2.35;2.25;;;1.10;99.90;;;;;;4994174;28;20022;-75
2023/01/18 11:33:55;;;;;;;4.05;3.75;;;1.00;99.90;;;;;;5011686;28;20029;-75
2023/01/18 11:36:34;;;;;;;2.50;2.40;;;1.00;99.90;;;;;;5028459;28;20072;-74
2023/01/18 11:39:24;;;;;;;2.35;2.25;;;0.90;99.90;;;;;;5017532;28;20025;-75
2023/01/18 11:41:50;;;;;;;1.70;1.70;;;0.90;99.90;;;;;;5028965;28;20033;-75
2023/01/18 11:44:18;;;;;;;2.13;2.03;;;1.00;99.90;;;;;;5003129;28;20026;-75
2023/01/18 11:46:56;;;;;;;2.47;2.38;;;1.00;99.90;;;;;;5000341;28;20694;-74
2023/01/18 11:49:36;;;;;;;2.25;2.20;;;1.10;99.90;;;;;;5002934;28;20454;-74
2023/01/18 11:52:15;;;;;;;3.00;2.80;;;1.10;99.90;;;;;;5007147;28;20032;-74
2023/01/18 11:54:52;;;;;;;2.70;2.50;;;1.20;99.90;;;;;;5007185;28;20022;-76
2023/01/18 11:57:18;;;;;;;4.20;3.78;;;1.20;99.90;;;;;;5020136;28;20103;-74
2023/01/18 11:59:45;;;;;;;1.70;1.70;;;1.30;99.90;;;;;;5018109;28;20026;-74
2023/01/18 12:02:35;;;;;;;1.77;1.77;;;1.00;99.90;;;;;;5022358;28;20022;-75
2023/01/18 12:05:38;;;;;;;2.00;2.00;;;1.00;99.90;;;;;;5014813;28;20566;-75
2023/01/18 12:08:23;;;;;;;2.05;2.05;;;1.10;99.90;;;;;;5014483;28;20022;-74
2023/01/18 12:10:48;;;;;;;2.00;2.00;;;1.20;99.90;;;;;;5028588;28;20041;-75
2023/01/18 12:13:21;;;;;;;2.65;2.45;;;1.30;99.90;;;;;;4997554;28;20022;-74
2023/01/18 12:16:04;;;;;;;2.30;2.20;;;1.20;99.90;;;;;;5015180;28;20101;-75
2023/01/18 12:18:46;;;;;;;2.10;2.00;;;1.20;99.90;;;;;;5014295;28;20030;-75
2023/01/18 12:21:29;;;;;;;4.63;4.07;;;1.30;99.90;;;;;;5015067;28;20033;-74
2023/01/18 12:24:28;;;;;;;2.97;2.88;;;1.10;99.90;;;;;;5028309;28;20543;-74
2023/01/18 12:26:58;;;;;;;2.47;2.38;;;1.20;99.90;;;;;;4996711;28;20029;-75
2023/01/18 12:29:52;;;;;;;2.58;2.47;;;1.10;99.90;;;;;;5014927;28;20534;-75
2023/01/18 12:32:23;;;;;;;2.30;2.20;;;1.10;99.90;;;;;;5014691;28;20025;-75
2023/01/18 12:34:59;;;;;;;2.30;2.20;;;1.10;99.90;;;;;;5018912;28;20025;-75
2023/01/18 12:37:27;;;;;;;;;;;1.00;99.90;;;;;;5027946;28;20028;-74
2023/01/18 12:40:18;;;;;;;2.75;2.35;;;1.00;99.90;;;;;;5027587;28;19962;-75
2023/01/18 12:42:58;;;;;;;5.28;4.70;;;1.10;99.90;;;;;;5014681;28;20026;-75
2023/01/18 12:45:44;;;;;;;1.75;1.75;;;1.00;99.90;;;;;;5010313;28;20049;-75
2023/01/18 12:48:23;;;;;;;3.30;3.08;;;1.20;99.90;;;;;;5027233;28;20097;-75
2023/01/18 12:50:50;;;;;;;2.45;2.35;;;1.20;99.90;;;;;;5023993;28;20060;-74
2023/01/18 12:53:34;;;;;;;3.97;3.40;;;1.10;99.90;;;;;;5003633;28;20396;-75
2023/01/18 12:56:11;;;;;;;2.22;2.13;;;0.90;99.90;;;;;;5005040;28;20111;-75
2023/01/18 12:58:37;;;;;;;4.43;4.22;;;0.90;99.90;;;;;;5020388;28;20038;-75
2023/01/18 13:01:06;;;;;;;3.33;3.08;;;0.90;99.90;;;;;;5021100;28;20022;-76
2023/01/18 13:03:40;;;;;;;2.45;2.35;;;0.60;99.90;;;;;;5021275;28;20021;-75
2023/01/18 13:06:05;;;;;;;4.10;2.85;;;0.60;99.90;;;;;;5003148;28;20142;-74
2023/01/18 13:08:53;;;;;;;2.80;2.70;;;0.60;99.90;;;;;;5025251;28;20108;-75
2023/01/18 13:11:23;;;;;;;2.20;2.10;;;0.70;99.90;;;;;;5014341;28;20021;-74
2023/01/18 13:14:01;;;;;;;2.78;2.67;;;0.70;99.90;;;;;;5021876;28;20029;-75
2023/01/18 13:16:43;;;;;;;2.10;2.00;;;0.80;99.90;;;;;;5020933;28;20053;-76
2023/01/18 13:19:14;;;;;;;2.58;2.45;;;0.80;99.90;;;;;;5017566;28;20155;-74
2023/01/18 13:21:51;;;;;;;3.33;3.03;;;0.80;99.90;;;;;;5013946;28;20049;-74
2023/01/18 13:24:47;;;;;;;9.10;8.30;;;0.70;99.90;;;;;;5010930;28;20030;-74
2023/01/18 13:27:15;;;;;;;3.50;3.25;;;0.70;99.90;;;;;;5015237;28;20082;-74
2023/01/18 13:29:42;;;;;;;2.65;2.55;;;0.70;99.90;;;;;;5024406;28;20030;-74
2023/01/18 13:32:29;;;;;;;2.20;2.20;;;0.70;99.90;;;;;;5011888;28;20556;-74
2023/01/18 13:35:02;;;;;;;2.60;2.50;;;0.70;99.90;;;;;;5033488;28;20025;-74
2023/01/18 13:37:46;;;;;;;4.47;4.28;;;0.60;99.90;;;;;;5013212;28;20041;-74
2023/01/18 13:40:36;;;;;;;3.08;2.88;;;0.60;99.90;;;;;;5013457;28;20391;-74
2023/01/18 13:43:04;;;;;;;3.95;3.67;;;0.60;99.90;;;;;;5024744;28;20505;-74
2023/01/18 13:45:30;;;;;;;2.70;2.60;;;0.60;99.90;;;;;;5031457;28;20033;-75
2023/01/18 13:47:59;;;;;;;4.05;3.85;;;0.70;99.90;;;;;;5030634;28;20029;-74